DLH8VV EDDM-EDDK
Flight info
| Callsign | DLH8VV |
|---|---|
| Flight time | 0h 45m |
| Altitude | 24000 |
| Route | GIVMI6S/26L GIVMI Y101 ERNAS T161 GOLMO DCT AKANU L603 RATIM DCT ASKIK T840 GULKO GULKO1B |
| Aircraft | A320/M-SDE2E3FGIJ1LORWXYZ/HB1 |
Departure
| Time | 2026-05-07 10:46 |
|---|---|
| Airport | Munich Airport (EDDM) |
Arrival
| Time | 2026-05-07 11:32 |
|---|---|
| Airport | Cologne Bonn Airport (EDDK) |
| Time | Latitude | Longitude | Altitude | Speed | Heading |
|---|---|---|---|---|---|
| 2026-05-07 10:27 | 48.35270 | 11.79328 | 1486 ft | 0 kts | 263° |
| 2026-05-07 10:38 | 48.35271 | 11.79341 | 1485 ft | 4 kts | 263° |
| 2026-05-07 10:38 | 48.35275 | 11.79380 | 1476 ft | 4 kts | 260° |
| 2026-05-07 10:39 | 48.35280 | 11.79421 | 1476 ft | 4 kts | 255° |
| 2026-05-07 10:39 | 48.35289 | 11.79459 | 1471 ft | 4 kts | 236° |
| 2026-05-07 10:39 | 48.35305 | 11.79480 | 1473 ft | 2 kts | 174° |
| 2026-05-07 10:39 | 48.35306 | 11.79480 | 1473 ft | 0 kts | 173° |
| 2026-05-07 10:42 | 48.35273 | 11.79486 | 1481 ft | 13 kts | 172° |
| 2026-05-07 10:42 | 48.35168 | 11.79503 | 1476 ft | 15 kts | 174° |
| 2026-05-07 10:42 | 48.35061 | 11.79522 | 1479 ft | 16 kts | 173° |
| 2026-05-07 10:43 | 48.34949 | 11.79542 | 1477 ft | 16 kts | 173° |
| 2026-05-07 10:43 | 48.34834 | 11.79562 | 1485 ft | 17 kts | 171° |
| 2026-05-07 10:43 | 48.34794 | 11.79628 | 1476 ft | 3 kts | 69° |
| 2026-05-07 10:43 | 48.34802 | 11.79702 | 1481 ft | 17 kts | 85° |
| 2026-05-07 10:44 | 48.34816 | 11.79883 | 1485 ft | 15 kts | 83° |
| 2026-05-07 10:44 | 48.34823 | 11.79978 | 1485 ft | 12 kts | 83° |
| 2026-05-07 10:44 | 48.34831 | 11.80110 | 1485 ft | 18 kts | 92° |
| 2026-05-07 10:44 | 48.34768 | 11.80230 | 1479 ft | 12 kts | 148° |
| 2026-05-07 10:45 | 48.34688 | 11.80248 | 1485 ft | 7 kts | 172° |
| 2026-05-07 10:45 | 48.34655 | 11.80255 | 1481 ft | 8 kts | 172° |
| 2026-05-07 10:45 | 48.34587 | 11.80268 | 1484 ft | 12 kts | 173° |
| 2026-05-07 10:45 | 48.34488 | 11.80257 | 1478 ft | 18 kts | 211° |
| 2026-05-07 10:46 | 48.34450 | 11.80048 | 1473 ft | 36 kts | 263° |
| 2026-05-07 10:46 | 48.34393 | 11.79308 | 1480 ft | 103 kts | 263° |
| 2026-05-07 10:46 | 48.34291 | 11.77966 | 1479 ft | 154 kts | 264° |
| 2026-05-07 10:46 | 48.34169 | 11.76333 | 2164 ft | 156 kts | 264° |
| 2026-05-07 10:47 | 48.34060 | 11.74685 | 2956 ft | 166 kts | 264° |
| 2026-05-07 10:47 | 48.33939 | 11.72847 | 3346 ft | 186 kts | 264° |
| 2026-05-07 10:47 | 48.33800 | 11.70817 | 3794 ft | 206 kts | 263° |
| 2026-05-07 10:47 | 48.33636 | 11.68572 | 4365 ft | 222 kts | 262° |
| 2026-05-07 10:48 | 48.33455 | 11.66220 | 5180 ft | 230 kts | 262° |
| 2026-05-07 10:48 | 48.33365 | 11.63813 | 6064 ft | 235 kts | 274° |
| 2026-05-07 10:48 | 48.33910 | 11.61448 | 6820 ft | 250 kts | 300° |
| 2026-05-07 10:48 | 48.34940 | 11.59270 | 7454 ft | 267 kts | 303° |
| 2026-05-07 10:49 | 48.36076 | 11.57002 | 8232 ft | 277 kts | 304° |
| 2026-05-07 10:49 | 48.37269 | 11.54671 | 9056 ft | 284 kts | 304° |
| 2026-05-07 10:49 | 48.38479 | 11.52298 | 9975 ft | 287 kts | 303° |
| 2026-05-07 10:49 | 48.39697 | 11.49887 | 10775 ft | 294 kts | 304° |
| 2026-05-07 10:50 | 48.41217 | 11.47628 | 11091 ft | 321 kts | 316° |
| 2026-05-07 10:50 | 48.42961 | 11.45407 | 11652 ft | 333 kts | 317° |
| 2026-05-07 10:50 | 48.44762 | 11.43156 | 12412 ft | 339 kts | 317° |
| 2026-05-07 10:50 | 48.46590 | 11.40873 | 13205 ft | 344 kts | 316° |
| 2026-05-07 10:51 | 48.48440 | 11.38551 | 13963 ft | 348 kts | 316° |
| 2026-05-07 10:51 | 48.50309 | 11.36195 | 14648 ft | 352 kts | 316° |
| 2026-05-07 10:51 | 48.52199 | 11.33808 | 15337 ft | 356 kts | 316° |
| 2026-05-07 10:51 | 48.54106 | 11.31398 | 16040 ft | 359 kts | 316° |
| 2026-05-07 10:52 | 48.56031 | 11.28960 | 16762 ft | 362 kts | 316° |
| 2026-05-07 10:52 | 48.57965 | 11.26503 | 17483 ft | 365 kts | 316° |
| 2026-05-07 10:52 | 48.59914 | 11.24023 | 18208 ft | 368 kts | 316° |
| 2026-05-07 10:52 | 48.61878 | 11.21522 | 18815 ft | 371 kts | 316° |
| 2026-05-07 10:53 | 48.63860 | 11.18995 | 19378 ft | 375 kts | 316° |
| 2026-05-07 10:53 | 48.65863 | 11.16440 | 19926 ft | 379 kts | 316° |
| 2026-05-07 10:53 | 48.67893 | 11.13848 | 20460 ft | 384 kts | 316° |
| 2026-05-07 10:53 | 48.69942 | 11.11228 | 20995 ft | 388 kts | 316° |
| 2026-05-07 10:54 | 48.72017 | 11.08569 | 21524 ft | 393 kts | 316° |
| 2026-05-07 10:54 | 48.74110 | 11.05880 | 22050 ft | 397 kts | 316° |
| 2026-05-07 10:54 | 48.76231 | 11.03160 | 22541 ft | 401 kts | 315° |
| 2026-05-07 10:54 | 48.78338 | 11.00458 | 23055 ft | 405 kts | 315° |
| 2026-05-07 10:55 | 48.80498 | 10.97682 | 23588 ft | 408 kts | 315° |
| 2026-05-07 10:55 | 48.82669 | 10.94885 | 23925 ft | 411 kts | 315° |
| 2026-05-07 10:55 | 48.84842 | 10.92080 | 24009 ft | 405 kts | 315° |
| 2026-05-07 10:55 | 48.86939 | 10.89384 | 24032 ft | 389 kts | 315° |
| 2026-05-07 10:56 | 48.89000 | 10.86732 | 24035 ft | 384 kts | 315° |
| 2026-05-07 10:56 | 48.91028 | 10.84112 | 24033 ft | 382 kts | 315° |
| 2026-05-07 10:56 | 48.93054 | 10.81484 | 24038 ft | 382 kts | 314° |
| 2026-05-07 10:56 | 48.95069 | 10.78863 | 24038 ft | 381 kts | 314° |
| 2026-05-07 10:57 | 48.97087 | 10.76242 | 24039 ft | 381 kts | 314° |
| 2026-05-07 10:57 | 48.99102 | 10.73622 | 24039 ft | 381 kts | 314° |
| 2026-05-07 10:57 | 49.01118 | 10.70991 | 24037 ft | 381 kts | 314° |
| 2026-05-07 10:57 | 49.03129 | 10.68365 | 24039 ft | 380 kts | 314° |
| 2026-05-07 10:58 | 49.05140 | 10.65741 | 24040 ft | 380 kts | 314° |
| 2026-05-07 10:58 | 49.07098 | 10.63052 | 24036 ft | 379 kts | 312° |
| 2026-05-07 10:58 | 49.08998 | 10.60282 | 24039 ft | 378 kts | 311° |
| 2026-05-07 10:58 | 49.10864 | 10.57461 | 24039 ft | 377 kts | 310° |
| 2026-05-07 10:59 | 49.12717 | 10.54629 | 24038 ft | 377 kts | 310° |
| 2026-05-07 10:59 | 49.14573 | 10.51799 | 24042 ft | 377 kts | 310° |
| 2026-05-07 10:59 | 49.16434 | 10.48988 | 24043 ft | 377 kts | 311° |
| 2026-05-07 10:59 | 49.18285 | 10.46223 | 24045 ft | 377 kts | 311° |
| 2026-05-07 11:00 | 49.20167 | 10.43429 | 24047 ft | 376 kts | 311° |
| 2026-05-07 11:00 | 49.22045 | 10.40643 | 24047 ft | 376 kts | 311° |
| 2026-05-07 11:00 | 49.23880 | 10.37811 | 24048 ft | 373 kts | 306° |
| 2026-05-07 11:00 | 49.25523 | 10.34756 | 24054 ft | 372 kts | 304° |
| 2026-05-07 11:01 | 49.27159 | 10.31692 | 24048 ft | 372 kts | 305° |
| 2026-05-07 11:01 | 49.28797 | 10.28626 | 24042 ft | 371 kts | 304° |
| 2026-05-07 11:01 | 49.30430 | 10.25571 | 24042 ft | 370 kts | 305° |
| 2026-05-07 11:01 | 49.32066 | 10.22510 | 24041 ft | 370 kts | 305° |
| 2026-05-07 11:02 | 49.33692 | 10.19461 | 24047 ft | 370 kts | 305° |
| 2026-05-07 11:02 | 49.35319 | 10.16406 | 24045 ft | 369 kts | 305° |
| 2026-05-07 11:02 | 49.36942 | 10.13358 | 24046 ft | 369 kts | 305° |
| 2026-05-07 11:02 | 49.38563 | 10.10312 | 24049 ft | 368 kts | 305° |
| 2026-05-07 11:03 | 49.40181 | 10.07266 | 24046 ft | 368 kts | 305° |
| 2026-05-07 11:03 | 49.41793 | 10.04216 | 24040 ft | 367 kts | 306° |
| 2026-05-07 11:03 | 49.43399 | 10.01168 | 24032 ft | 367 kts | 305° |
| 2026-05-07 11:03 | 49.45004 | 9.98126 | 24031 ft | 367 kts | 305° |
| 2026-05-07 11:04 | 49.46609 | 9.95086 | 24031 ft | 366 kts | 305° |
| 2026-05-07 11:04 | 49.48216 | 9.92041 | 24034 ft | 366 kts | 305° |
| 2026-05-07 11:04 | 49.49799 | 9.89032 | 24028 ft | 366 kts | 305° |
| 2026-05-07 11:04 | 49.51400 | 9.85985 | 24027 ft | 366 kts | 305° |
| 2026-05-07 11:05 | 49.52997 | 9.82945 | 24029 ft | 366 kts | 305° |
| 2026-05-07 11:05 | 49.54599 | 9.79895 | 24020 ft | 365 kts | 305° |
| 2026-05-07 11:05 | 49.56194 | 9.76851 | 24020 ft | 365 kts | 305° |
| 2026-05-07 11:05 | 49.57789 | 9.73805 | 24020 ft | 365 kts | 305° |
| 2026-05-07 11:06 | 49.59382 | 9.70756 | 24013 ft | 365 kts | 305° |
| 2026-05-07 11:06 | 49.60971 | 9.67707 | 24017 ft | 365 kts | 305° |
| 2026-05-07 11:06 | 49.62562 | 9.64658 | 24017 ft | 365 kts | 305° |
| 2026-05-07 11:06 | 49.64150 | 9.61611 | 24013 ft | 364 kts | 305° |
| 2026-05-07 11:07 | 49.65734 | 9.58567 | 24017 ft | 364 kts | 305° |
| 2026-05-07 11:07 | 49.67316 | 9.55524 | 24016 ft | 363 kts | 305° |
| 2026-05-07 11:07 | 49.68889 | 9.52479 | 24021 ft | 362 kts | 303° |
| 2026-05-07 11:07 | 49.70227 | 9.49213 | 24022 ft | 359 kts | 296° |
| 2026-05-07 11:08 | 49.71460 | 9.45867 | 24028 ft | 359 kts | 296° |
| 2026-05-07 11:08 | 49.72704 | 9.42518 | 24024 ft | 359 kts | 296° |
| 2026-05-07 11:08 | 49.73952 | 9.39170 | 24028 ft | 359 kts | 296° |
| 2026-05-07 11:08 | 49.75198 | 9.35828 | 24026 ft | 359 kts | 296° |
| 2026-05-07 11:09 | 49.76427 | 9.32522 | 24027 ft | 359 kts | 296° |
| 2026-05-07 11:09 | 49.77669 | 9.29170 | 24031 ft | 358 kts | 296° |
| 2026-05-07 11:09 | 49.78903 | 9.25824 | 24026 ft | 358 kts | 296° |
| 2026-05-07 11:09 | 49.80134 | 9.22479 | 24030 ft | 358 kts | 296° |
| 2026-05-07 11:10 | 49.81366 | 9.19131 | 24032 ft | 358 kts | 296° |
| 2026-05-07 11:10 | 49.82600 | 9.15780 | 24025 ft | 357 kts | 296° |
| 2026-05-07 11:10 | 49.83831 | 9.12435 | 24029 ft | 357 kts | 296° |
| 2026-05-07 11:10 | 49.85059 | 9.09091 | 24023 ft | 357 kts | 296° |
| 2026-05-07 11:11 | 49.86285 | 9.05750 | 24023 ft | 357 kts | 296° |
| 2026-05-07 11:11 | 49.87514 | 9.02400 | 24019 ft | 357 kts | 296° |
| 2026-05-07 11:11 | 49.88739 | 8.99056 | 24022 ft | 356 kts | 296° |
| 2026-05-07 11:11 | 49.89944 | 8.95756 | 24022 ft | 357 kts | 296° |
| 2026-05-07 11:12 | 49.91166 | 8.92403 | 24023 ft | 357 kts | 296° |
| 2026-05-07 11:12 | 49.92384 | 8.89047 | 24023 ft | 357 kts | 296° |
| 2026-05-07 11:12 | 49.93601 | 8.85689 | 24021 ft | 357 kts | 296° |
| 2026-05-07 11:12 | 49.94819 | 8.82329 | 24025 ft | 357 kts | 296° |
| 2026-05-07 11:13 | 49.96036 | 8.78976 | 24023 ft | 357 kts | 296° |
| 2026-05-07 11:13 | 49.97257 | 8.75608 | 24028 ft | 357 kts | 296° |
| 2026-05-07 11:13 | 49.98477 | 8.72242 | 24027 ft | 357 kts | 296° |
| 2026-05-07 11:13 | 49.99693 | 8.68882 | 24023 ft | 357 kts | 296° |
| 2026-05-07 11:14 | 50.00911 | 8.65512 | 24028 ft | 357 kts | 296° |
| 2026-05-07 11:14 | 50.02126 | 8.62145 | 24028 ft | 357 kts | 296° |
| 2026-05-07 11:14 | 50.03350 | 8.58782 | 24026 ft | 358 kts | 298° |
| 2026-05-07 11:14 | 50.04852 | 8.55737 | 24024 ft | 362 kts | 310° |
| 2026-05-07 11:15 | 50.06786 | 8.53188 | 24023 ft | 367 kts | 323° |
| 2026-05-07 11:15 | 50.09060 | 8.51330 | 24023 ft | 372 kts | 335° |
| 2026-05-07 11:15 | 50.11516 | 8.50014 | 24023 ft | 373 kts | 338° |
| 2026-05-07 11:15 | 50.13972 | 8.48710 | 24019 ft | 374 kts | 337° |
| 2026-05-07 11:16 | 50.16434 | 8.47387 | 24021 ft | 374 kts | 337° |
| 2026-05-07 11:16 | 50.18894 | 8.46052 | 24032 ft | 374 kts | 337° |
| 2026-05-07 11:16 | 50.21389 | 8.44690 | 24042 ft | 389 kts | 337° |
| 2026-05-07 11:16 | 50.23985 | 8.43273 | 24041 ft | 399 kts | 337° |
| 2026-05-07 11:17 | 50.26622 | 8.41842 | 24042 ft | 402 kts | 337° |
| 2026-05-07 11:17 | 50.29222 | 8.40258 | 24038 ft | 399 kts | 329° |
| 2026-05-07 11:17 | 50.31596 | 8.38050 | 24037 ft | 397 kts | 324° |
| 2026-05-07 11:17 | 50.33911 | 8.35754 | 23952 ft | 388 kts | 324° |
| 2026-05-07 11:18 | 50.36162 | 8.33503 | 23560 ft | 381 kts | 323° |
| 2026-05-07 11:18 | 50.38387 | 8.31269 | 23039 ft | 378 kts | 324° |
| 2026-05-07 11:18 | 50.40591 | 8.29056 | 22521 ft | 375 kts | 324° |
| 2026-05-07 11:18 | 50.42780 | 8.26857 | 22009 ft | 372 kts | 324° |
| 2026-05-07 11:19 | 50.44954 | 8.24678 | 21532 ft | 368 kts | 324° |
| 2026-05-07 11:19 | 50.47093 | 8.22538 | 20721 ft | 363 kts | 324° |
| 2026-05-07 11:19 | 50.49222 | 8.20410 | 19897 ft | 360 kts | 324° |
| 2026-05-07 11:19 | 50.51292 | 8.18338 | 19126 ft | 356 kts | 324° |
| 2026-05-07 11:20 | 50.53370 | 8.16255 | 18371 ft | 352 kts | 324° |
| 2026-05-07 11:20 | 50.55420 | 8.14192 | 17538 ft | 348 kts | 324° |
| 2026-05-07 11:20 | 50.57451 | 8.12139 | 16746 ft | 344 kts | 324° |
| 2026-05-07 11:20 | 50.59449 | 8.10115 | 15998 ft | 339 kts | 324° |
| 2026-05-07 11:21 | 50.61424 | 8.08119 | 15261 ft | 335 kts | 324° |
| 2026-05-07 11:21 | 50.63359 | 8.06165 | 14779 ft | 325 kts | 324° |
| 2026-05-07 11:21 | 50.65225 | 8.04280 | 14388 ft | 312 kts | 324° |
| 2026-05-07 11:21 | 50.67020 | 8.02461 | 14015 ft | 302 kts | 324° |
| 2026-05-07 11:22 | 50.68758 | 8.00695 | 13611 ft | 292 kts | 324° |
| 2026-05-07 11:22 | 50.70441 | 7.98984 | 13238 ft | 284 kts | 324° |
| 2026-05-07 11:22 | 50.72083 | 7.97311 | 12875 ft | 285 kts | 323° |
| 2026-05-07 11:22 | 50.73556 | 7.95215 | 12502 ft | 281 kts | 305° |
| 2026-05-07 11:23 | 50.74511 | 7.92607 | 12147 ft | 277 kts | 288° |
| 2026-05-07 11:23 | 50.74928 | 7.89669 | 11779 ft | 274 kts | 271° |
| 2026-05-07 11:23 | 50.74798 | 7.86683 | 11414 ft | 273 kts | 261° |
| 2026-05-07 11:23 | 50.74527 | 7.83711 | 11049 ft | 274 kts | 261° |
| 2026-05-07 11:24 | 50.74260 | 7.80736 | 10666 ft | 274 kts | 261° |
| 2026-05-07 11:24 | 50.73989 | 7.77745 | 10288 ft | 275 kts | 261° |
| 2026-05-07 11:24 | 50.73719 | 7.74751 | 9896 ft | 276 kts | 261° |
| 2026-05-07 11:24 | 50.73449 | 7.71740 | 9467 ft | 277 kts | 261° |
| 2026-05-07 11:25 | 50.73178 | 7.68719 | 9034 ft | 278 kts | 261° |
| 2026-05-07 11:25 | 50.72904 | 7.65696 | 8604 ft | 278 kts | 261° |
| 2026-05-07 11:25 | 50.72629 | 7.62688 | 8196 ft | 277 kts | 261° |
| 2026-05-07 11:25 | 50.72356 | 7.59693 | 7784 ft | 276 kts | 261° |
| 2026-05-07 11:26 | 50.72081 | 7.56685 | 7355 ft | 276 kts | 261° |
| 2026-05-07 11:26 | 50.71808 | 7.53694 | 6931 ft | 275 kts | 261° |
| 2026-05-07 11:26 | 50.71534 | 7.50704 | 6498 ft | 275 kts | 261° |
| 2026-05-07 11:26 | 50.71258 | 7.47714 | 6024 ft | 276 kts | 261° |
| 2026-05-07 11:27 | 50.70980 | 7.44725 | 5567 ft | 276 kts | 261° |
| 2026-05-07 11:27 | 50.70703 | 7.41726 | 5103 ft | 276 kts | 263° |
| 2026-05-07 11:27 | 50.70814 | 7.38785 | 4622 ft | 274 kts | 289° |
| 2026-05-07 11:27 | 50.71826 | 7.36277 | 4160 ft | 272 kts | 316° |
| 2026-05-07 11:28 | 50.73210 | 7.34281 | 3785 ft | 268 kts | 318° |
| 2026-05-07 11:28 | 50.74589 | 7.32324 | 3419 ft | 263 kts | 318° |
| 2026-05-07 11:28 | 50.75934 | 7.30395 | 3064 ft | 258 kts | 317° |
| 2026-05-07 11:28 | 50.77247 | 7.28504 | 2716 ft | 253 kts | 317° |
| 2026-05-07 11:29 | 50.78539 | 7.26643 | 2367 ft | 248 kts | 317° |
| 2026-05-07 11:29 | 50.79750 | 7.24899 | 2041 ft | 222 kts | 317° |
| 2026-05-07 11:29 | 50.80831 | 7.23340 | 1756 ft | 200 kts | 317° |
| 2026-05-07 11:29 | 50.81814 | 7.21923 | 1467 ft | 182 kts | 317° |
| 2026-05-07 11:30 | 50.82687 | 7.20662 | 1192 ft | 157 kts | 317° |
| 2026-05-07 11:30 | 50.83450 | 7.19560 | 930 ft | 143 kts | 319° |
| 2026-05-07 11:30 | 50.84175 | 7.18514 | 719 ft | 140 kts | 320° |
| 2026-05-07 11:30 | 50.84882 | 7.17494 | 566 ft | 134 kts | 319° |
| 2026-05-07 11:31 | 50.85535 | 7.16545 | 368 ft | 126 kts | 319° |
| 2026-05-07 11:31 | 50.86123 | 7.15697 | 296 ft | 95 kts | 318° |
| 2026-05-07 11:31 | 50.86503 | 7.15146 | 280 ft | 61 kts | 317° |
| 2026-05-07 11:31 | 50.86791 | 7.14736 | 267 ft | 51 kts | 319° |
| 2026-05-07 11:32 | 50.87233 | 7.14077 | 245 ft | 33 kts | 308° |
| 2026-05-07 11:32 | 50.87307 | 7.13818 | 240 ft | 23 kts | 283° |
| 2026-05-07 11:32 | 50.87321 | 7.13698 | 238 ft | 0 kts | 278° |
| 2026-05-07 11:33 | 50.87330 | 7.13599 | 238 ft | 19 kts | 279° |
| 2026-05-07 11:33 | 50.87399 | 7.13389 | 232 ft | 23 kts | 317° |
| 2026-05-07 11:34 | 50.87521 | 7.13213 | 233 ft | 24 kts | 317° |
| 2026-05-07 11:34 | 50.87649 | 7.13028 | 233 ft | 26 kts | 317° |
| 2026-05-07 11:34 | 50.87775 | 7.12845 | 232 ft | 22 kts | 318° |
| 2026-05-07 11:34 | 50.87789 | 7.12697 | 235 ft | 12 kts | 283° |
| 2026-05-07 11:35 | 50.87854 | 7.12611 | 232 ft | 14 kts | 340° |
| 2026-05-07 11:35 | 50.87953 | 7.12618 | 232 ft | 15 kts | 345° |
| 2026-05-07 11:35 | 50.88030 | 7.12493 | 233 ft | 17 kts | 299° |
| 2026-05-07 11:35 | 50.88097 | 7.12326 | 232 ft | 10 kts | 301° |
| 2026-05-07 11:36 | 50.88099 | 7.12317 | 232 ft | 0 kts | 294° |
| 2026-05-07 11:36 | 50.88081 | 7.12302 | 232 ft | 9 kts | 188° |
| 2026-05-07 11:36 | 50.88017 | 7.12322 | 232 ft | 3 kts | 171° |
| 2026-05-07 11:36 | 50.88002 | 7.12312 | 232 ft | 3 kts | 204° |
| 2026-05-07 11:37 | 50.87957 | 7.12300 | 232 ft | 7 kts | 172° |
| 2026-05-07 11:37 | 50.87940 | 7.12304 | 232 ft | 0 kts | 174° |